createdAt,value
2019-03-01T00:02:09.221Z,9.60
2019-03-01T00:06:19.324Z,9.60
2019-03-01T00:10:02.363Z,9.60
2019-03-01T00:13:59.322Z,9.60
2019-03-01T00:18:27.268Z,9.50
2019-03-01T00:22:07.347Z,9.50
2019-03-01T00:25:32.389Z,9.50
2019-03-01T00:29:20.960Z,9.50
2019-03-01T00:33:03.824Z,9.40
2019-03-01T00:36:30.187Z,9.40
2019-03-01T00:39:50.379Z,9.40
2019-03-01T00:43:42.310Z,9.40
2019-03-01T00:46:33.654Z,9.40
2019-03-01T00:49:25.290Z,9.40
2019-03-01T00:52:16.944Z,9.40
2019-03-01T00:55:08.364Z,9.40
2019-03-01T00:57:59.655Z,9.40
2019-03-01T01:00:51.173Z,9.50
2019-03-01T01:03:42.631Z,9.40
2019-03-01T01:06:34.293Z,9.40
2019-03-01T01:09:26.573Z,9.50
2019-03-01T01:12:18.378Z,9.50
2019-03-01T01:15:09.862Z,9.40
2019-03-01T01:18:01.421Z,9.50
2019-03-01T01:20:52.951Z,9.50
2019-03-01T01:23:44.632Z,9.40
2019-03-01T01:26:36.079Z,9.40
2019-03-01T01:29:27.600Z,9.40
2019-03-01T01:32:19.337Z,9.40
2019-03-01T01:35:10.763Z,9.40
2019-03-01T01:38:03.399Z,9.40
2019-03-01T01:40:55.135Z,9.40
2019-03-01T01:43:46.544Z,9.40
2019-03-01T01:46:38.139Z,9.40
2019-03-01T01:49:31.089Z,9.40
2019-03-01T01:52:22.831Z,9.30
2019-03-01T01:55:14.861Z,9.30
2019-03-01T01:58:06.500Z,9.30
2019-03-01T02:00:57.844Z,9.30
2019-03-01T02:03:49.373Z,9.30
2019-03-01T02:06:41.003Z,9.30
2019-03-01T02:09:33.073Z,9.30
2019-03-01T02:12:24.522Z,9.30
2019-03-01T02:15:16.738Z,9.30
2019-03-01T02:18:08.532Z,9.30
2019-03-01T02:21:00.016Z,9.20
2019-03-01T02:23:51.490Z,9.20
2019-03-01T02:26:43.047Z,9.20
2019-03-01T02:29:34.487Z,9.20
2019-03-01T02:32:47.193Z,9.20
2019-03-01T02:35:38.551Z,9.20
2019-03-01T02:38:29.976Z,9.20
2019-03-01T02:41:21.258Z,9.20
2019-03-01T02:44:12.603Z,9.10
2019-03-01T02:47:05.194Z,9.20
2019-03-01T02:49:56.796Z,9.10
2019-03-01T02:52:49.369Z,9.10
2019-03-01T02:55:41.019Z,9.10
2019-03-01T02:58:33.297Z,9.10
2019-03-01T03:01:24.829Z,9.00
2019-03-01T03:04:16.509Z,9.00
2019-03-01T03:07:16.551Z,9.00
2019-03-01T03:10:07.965Z,9.00
2019-03-01T09:28:01.124Z,7.70
2019-03-01T09:30:53.805Z,7.80
2019-03-01T09:33:45.545Z,7.80
2019-03-01T09:36:45.991Z,7.90
2019-03-01T09:39:37.282Z,8.00
2019-03-01T09:42:28.813Z,8.10
2019-03-01T09:45:20.370Z,8.20
2019-03-01T09:48:12.977Z,8.20
2019-03-01T09:51:07.331Z,8.30
2019-03-01T09:53:57.609Z,8.30
2019-03-01T09:56:49.246Z,8.40
2019-03-01T09:59:41.555Z,8.50
2019-03-01T10:02:33.246Z,8.70
2019-03-01T10:05:25.056Z,8.80
2019-03-01T10:08:16.811Z,8.80
2019-03-01T10:11:08.534Z,8.80
2019-03-01T10:14:00.023Z,8.90
2019-03-01T10:16:55.991Z,9.00
2019-03-01T10:19:48.346Z,9.10
2019-03-01T10:22:39.990Z,9.10
2019-03-01T10:25:31.374Z,9.10
2019-03-01T10:28:24.130Z,9.10
2019-03-01T10:31:15.586Z,9.10
2019-03-01T10:34:07.295Z,9.20
2019-03-01T10:36:58.943Z,9.20
2019-03-01T10:39:55.376Z,9.20
2019-03-01T10:42:43.770Z,9.30
2019-03-01T10:45:35.152Z,9.30
2019-03-01T10:48:27.503Z,9.30
2019-03-01T10:51:19.270Z,9.40
2019-03-01T10:54:10.627Z,9.30
2019-03-01T10:57:02.129Z,9.30
2019-03-01T10:59:54.115Z,9.30
2019-03-01T11:02:45.519Z,9.20
2019-03-01T11:05:36.943Z,9.10
2019-03-01T11:08:28.698Z,9.10
2019-03-01T11:11:20.276Z,9.00
2019-03-01T11:14:12.439Z,9.10
2019-03-01T11:17:03.861Z,9.10
2019-03-01T11:19:55.279Z,9.10
2019-03-01T11:22:46.923Z,9.10
2019-03-01T11:25:39.148Z,9.10
2019-03-01T11:28:30.794Z,9.30
2019-03-01T11:31:22.469Z,9.40
2019-03-01T11:34:14.939Z,9.60
2019-03-01T11:37:06.265Z,9.80
2019-03-01T11:39:57.853Z,9.80
2019-03-01T11:42:49.445Z,9.70
2019-03-01T11:45:40.908Z,9.80
2019-03-01T11:48:33.047Z,10.00
2019-03-01T11:51:24.491Z,10.20
2019-03-01T11:54:16.311Z,10.30
2019-03-01T11:57:34.254Z,10.30
2019-03-01T12:00:25.903Z,10.20
2019-03-01T12:03:17.319Z,9.90
2019-03-01T12:06:08.880Z,9.70
2019-03-01T12:09:00.289Z,9.50
2019-03-01T12:11:52.251Z,9.40
2019-03-01T12:14:43.672Z,9.40
2019-03-01T12:17:35.000Z,9.40
2019-03-01T12:20:26.320Z,9.50
2019-03-01T12:23:18.255Z,9.60
2019-03-01T12:26:09.739Z,9.80
2019-03-01T12:29:01.336Z,9.90
2019-03-01T12:31:53.665Z,10.00
2019-03-01T12:34:45.325Z,10.10
2019-03-01T12:37:37.840Z,10.20
2019-03-01T12:40:29.430Z,10.20
2019-03-01T12:43:36.888Z,10.10
2019-03-01T12:46:30.130Z,10.10
2019-03-01T12:49:21.678Z,10.10
2019-03-01T12:52:14.032Z,10.20
2019-03-01T12:55:12.354Z,10.30
2019-03-01T12:58:05.569Z,10.30
2019-03-01T13:01:00.196Z,10.30
2019-03-01T13:03:51.797Z,10.30
2019-03-01T13:06:43.221Z,10.10
2019-03-01T13:09:34.648Z,10.00
2019-03-01T13:12:26.986Z,10.00
2019-03-01T13:15:19.122Z,10.00
2019-03-01T13:18:15.705Z,10.10
2019-03-01T13:21:03.493Z,10.20
2019-03-01T13:23:55.111Z,10.30
2019-03-01T13:26:46.709Z,10.30
2019-03-01T13:29:38.476Z,10.40
2019-03-01T13:32:30.224Z,10.50
2019-03-01T13:35:22.263Z,10.60
2019-03-01T13:38:15.237Z,10.80
2019-03-01T13:41:06.673Z,10.80
2019-03-01T13:44:00.290Z,10.90
2019-03-01T13:46:51.000Z,10.90
2019-03-01T13:49:42.383Z,11.00
2019-03-01T13:52:33.682Z,11.00
2019-03-01T13:55:25.347Z,10.80
2019-03-01T13:58:16.955Z,10.60
2019-03-01T14:01:09.341Z,10.40
2019-03-01T14:04:03.140Z,10.20
2019-03-01T14:06:54.613Z,10.00
2019-03-01T14:09:47.352Z,9.80
2019-03-01T14:12:38.990Z,9.70
2019-03-01T14:15:30.457Z,9.70
2019-03-01T14:18:22.119Z,9.60
2019-03-01T14:21:13.622Z,9.60
2019-03-01T14:24:05.102Z,9.60
2019-03-01T14:26:56.729Z,9.60
2019-03-01T14:29:52.347Z,9.50
2019-03-01T14:32:41.878Z,9.40
2019-03-01T14:35:33.218Z,9.40
2019-03-01T14:38:26.791Z,9.30
2019-03-01T14:41:18.017Z,9.30
2019-03-01T14:44:09.577Z,9.20
2019-03-01T14:47:01.228Z,9.20
2019-03-01T14:49:54.022Z,9.20
2019-03-01T14:52:45.976Z,9.10
2019-03-01T14:55:42.266Z,9.20
2019-03-01T14:58:47.341Z,9.20
2019-03-01T15:02:03.168Z,9.20
2019-03-01T15:04:54.360Z,9.20
2019-03-01T15:07:46.161Z,9.20
2019-03-01T15:10:37.704Z,9.20
2019-03-01T15:13:31.347Z,9.20
2019-03-01T15:16:23.182Z,9.20
2019-03-01T15:19:14.564Z,9.20
2019-03-01T15:22:06.276Z,9.20
2019-03-01T15:24:57.775Z,9.30
2019-03-01T15:27:49.232Z,9.30
2019-03-01T15:30:42.587Z,9.30
2019-03-01T15:33:35.173Z,9.30
2019-03-01T15:36:26.959Z,9.20
2019-03-01T15:39:19.992Z,9.20
2019-03-01T15:42:14.317Z,9.20
2019-03-01T15:45:06.180Z,9.30
2019-03-01T15:47:58.718Z,9.30
2019-03-01T15:50:50.649Z,9.30
2019-03-01T15:53:42.133Z,9.40
2019-03-01T15:56:33.620Z,9.40
2019-03-01T15:59:25.183Z,9.50
2019-03-01T16:02:16.712Z,9.50
2019-03-01T16:05:09.619Z,9.40
2019-03-01T16:08:00.879Z,9.40
2019-03-01T16:10:52.499Z,9.30
2019-03-01T16:13:48.030Z,9.30
2019-03-01T16:16:37.579Z,9.30
2019-03-01T16:19:29.424Z,9.10
2019-03-01T16:22:21.661Z,9.10
2019-03-01T16:25:17.277Z,9.00
2019-03-01T16:28:07.509Z,8.90
2019-03-01T16:30:59.532Z,8.90
2019-03-01T16:33:50.956Z,8.80
2019-03-01T16:36:45.929Z,8.80
2019-03-01T16:39:37.432Z,8.80
2019-03-01T16:42:38.024Z,8.70
2019-03-01T16:45:22.501Z,8.60
2019-03-01T16:48:16.899Z,8.60
2019-03-01T16:51:07.115Z,8.50
2019-03-01T16:53:58.534Z,8.50
2019-03-01T16:56:50.255Z,8.40
2019-03-01T16:59:43.670Z,8.30
2019-03-01T17:02:38.676Z,8.30
2019-03-01T17:05:29.419Z,8.30
2019-03-01T17:08:21.045Z,8.20
2019-03-01T17:11:12.674Z,8.20
2019-03-01T17:14:05.223Z,8.10
2019-03-01T17:16:59.566Z,8.10
2019-03-01T17:19:49.615Z,8.00
2019-03-01T17:22:41.175Z,8.00
2019-03-01T17:25:32.804Z,8.00
2019-03-01T17:28:26.652Z,7.90
2019-03-01T17:31:17.380Z,7.90
2019-03-01T17:34:08.702Z,7.90
2019-03-01T17:37:00.370Z,7.90
2019-03-01T17:39:53.103Z,7.90
2019-03-01T17:42:44.982Z,7.80
2019-03-01T17:45:36.290Z,7.80
2019-03-01T17:48:29.546Z,7.80
2019-03-01T17:51:21.821Z,7.80
2019-03-01T17:54:13.768Z,7.80
2019-03-01T17:57:05.357Z,7.80
2019-03-01T17:59:57.372Z,7.70
2019-03-01T18:02:52.123Z,7.70
2019-03-01T18:05:41.927Z,7.70
2019-03-01T18:08:35.744Z,7.70
2019-03-01T18:11:26.643Z,7.70
2019-03-01T18:14:18.224Z,7.70
2019-03-01T18:17:09.627Z,7.70
2019-03-01T18:20:01.567Z,7.70
2019-03-01T18:22:54.254Z,7.70
2019-03-01T18:25:45.660Z,7.70
2019-03-01T18:28:38.735Z,7.70
2019-03-01T18:31:34.497Z,7.70
2019-03-01T18:34:24.032Z,7.70
2019-03-01T18:37:19.544Z,7.70
2019-03-01T18:40:09.916Z,7.70
2019-03-01T18:43:03.299Z,7.70
2019-03-01T18:45:55.740Z,7.70
2019-03-01T18:48:47.760Z,7.60
2019-03-01T18:51:42.356Z,7.60
2019-03-01T18:54:32.498Z,7.60
2019-03-01T18:57:24.153Z,7.60
2019-03-01T19:00:23.869Z,7.60
2019-03-01T19:03:16.061Z,7.60
2019-03-01T19:06:08.187Z,7.60
2019-03-01T19:08:59.971Z,7.50
2019-03-01T19:11:51.319Z,7.50
2019-03-01T19:14:42.827Z,7.50
2019-03-01T19:17:36.802Z,7.50
2019-03-01T19:20:28.359Z,7.50
2019-03-01T19:23:19.625Z,7.50
2019-03-01T19:26:11.102Z,7.50
2019-03-01T19:29:03.681Z,7.50
2019-03-01T19:31:55.522Z,7.50
2019-03-01T19:34:49.637Z,7.50
2019-03-01T19:37:41.659Z,7.50
2019-03-01T19:40:33.272Z,7.50
2019-03-01T19:43:24.841Z,7.50
2019-03-01T19:46:16.695Z,7.50
2019-03-01T19:49:09.420Z,7.40
2019-03-01T19:52:01.833Z,7.50
2019-03-01T19:54:53.180Z,7.40
2019-03-01T19:57:44.968Z,7.40
2019-03-01T20:00:39.175Z,7.40
2019-03-01T20:03:29.373Z,7.50
2019-03-01T20:06:21.110Z,7.50
2019-03-01T20:09:12.537Z,7.40
2019-03-01T20:12:05.203Z,7.40
2019-03-01T20:14:56.947Z,7.40
2019-03-01T20:17:48.440Z,7.40
2019-03-01T20:20:42.016Z,7.40
2019-03-01T20:23:33.861Z,7.40
2019-03-01T20:26:26.687Z,7.40
2019-03-01T20:29:19.370Z,7.40
2019-03-01T20:32:12.591Z,7.40
2019-03-01T20:35:05.286Z,7.40
2019-03-01T20:38:00.271Z,7.30
2019-03-01T20:40:49.732Z,7.30
2019-03-01T20:43:41.721Z,7.30
2019-03-01T20:46:34.428Z,7.30
2019-03-01T20:49:26.058Z,7.30
2019-03-01T20:52:17.636Z,7.30
2019-03-01T20:55:09.795Z,7.30
2019-03-01T20:58:03.164Z,7.30
2019-03-01T21:00:54.429Z,7.30
2019-03-01T21:03:45.805Z,7.20
2019-03-01T21:06:40.637Z,7.20
2019-03-01T21:09:31.924Z,7.20
2019-03-01T21:12:23.743Z,7.20
2019-03-01T21:15:15.656Z,7.30
2019-03-01T21:18:07.684Z,7.30
2019-03-01T21:20:59.338Z,7.30
2019-03-01T21:23:52.235Z,7.20
2019-03-01T21:26:43.806Z,7.20
2019-03-01T21:29:35.164Z,7.20
2019-03-01T21:32:26.832Z,7.20
2019-03-01T21:35:19.043Z,7.20
2019-03-01T21:38:13.694Z,7.10
2019-03-01T21:41:06.290Z,7.10
2019-03-01T21:43:56.587Z,7.20
2019-03-01T21:46:47.982Z,7.20
2019-03-01T21:49:40.231Z,7.20
2019-03-01T21:52:31.567Z,7.20
2019-03-01T21:55:24.887Z,7.20
2019-03-01T21:58:16.364Z,7.30
2019-03-01T22:01:08.733Z,7.30
2019-03-01T22:04:02.587Z,7.40
2019-03-01T22:06:55.993Z,7.30
2019-03-01T22:09:46.829Z,7.40
2019-03-01T22:12:38.470Z,7.40
2019-03-01T22:15:30.545Z,7.50
2019-03-01T22:18:23.629Z,7.50
2019-03-01T22:21:20.263Z,7.50
2019-03-01T22:24:08.849Z,7.50
2019-03-01T22:27:00.536Z,7.50
2019-03-01T22:29:52.303Z,7.50
2019-03-01T22:32:45.482Z,7.60
2019-03-01T22:35:36.835Z,7.60
2019-03-01T22:38:30.053Z,7.60
2019-03-01T22:41:21.923Z,7.60
2019-03-01T22:44:13.287Z,7.60
2019-03-01T22:47:04.988Z,7.60
2019-03-01T22:49:57.349Z,7.70
2019-03-01T22:52:48.921Z,7.70
2019-03-01T22:55:40.274Z,7.70
2019-03-01T22:58:32.826Z,7.70
2019-03-01T23:01:37.984Z,7.70
2019-03-01T23:04:30.309Z,7.80
2019-03-01T23:07:23.484Z,7.80
2019-03-01T23:10:18.481Z,7.80
2019-03-01T23:13:09.524Z,7.80
2019-03-01T23:16:00.925Z,7.80
2019-03-01T23:18:56.683Z,7.80
2019-03-01T23:21:46.434Z,7.80
2019-03-01T23:24:38.691Z,7.70
2019-03-01T23:27:31.831Z,7.80
2019-03-01T23:30:25.736Z,7.80
2019-03-01T23:33:17.575Z,7.80
2019-03-01T23:36:09.363Z,7.80
2019-03-01T23:39:00.726Z,7.80
2019-03-01T23:41:53.393Z,7.80
2019-03-01T23:44:44.888Z,7.80
2019-03-01T23:47:38.301Z,7.80
2019-03-01T23:50:31.604Z,7.70
2019-03-01T23:53:22.082Z,7.70
2019-03-01T23:56:13.935Z,7.70
2019-03-01T23:59:05.318Z,7.80
